sensor_id;sensor_type;location;lat;lon;timestamp;P1;durP1;ratioP1;P2;durP2;ratioP2
10078;SDS011;5078;42.544;22.966;2022-07-10T00:00:06;16.40;;;14.75;;
10078;SDS011;5078;42.544;22.966;2022-07-10T00:02:35;16.08;;;14.13;;
10078;SDS011;5078;42.544;22.966;2022-07-10T00:05:04;18.35;;;14.20;;
10078;SDS011;5078;42.544;22.966;2022-07-10T00:07:32;15.68;;;14.18;;
10078;SDS011;5078;42.544;22.966;2022-07-10T00:09:59;17.17;;;15.32;;
10078;SDS011;5078;42.544;22.966;2022-07-10T00:12:26;17.80;;;14.95;;
10078;SDS011;5078;42.544;22.966;2022-07-10T00:14:53;15.98;;;14.48;;
10078;SDS011;5078;42.544;22.966;2022-07-10T00:17:19;16.20;;;14.70;;
10078;SDS011;5078;42.544;22.966;2022-07-10T00:19:46;16.73;;;14.95;;
10078;SDS011;5078;42.544;22.966;2022-07-10T00:22:14;15.82;;;14.32;;
10078;SDS011;5078;42.544;22.966;2022-07-10T00:24:41;16.55;;;15.05;;
10078;SDS011;5078;42.544;22.966;2022-07-10T00:27:08;16.42;;;14.68;;
10078;SDS011;5078;42.544;22.966;2022-07-10T00:29:34;18.10;;;15.95;;
10078;SDS011;5078;42.544;22.966;2022-07-10T00:32:01;15.48;;;13.88;;
10078;SDS011;5078;42.544;22.966;2022-07-10T00:34:28;16.42;;;14.82;;
10078;SDS011;5078;42.544;22.966;2022-07-10T00:36:55;17.08;;;15.38;;
10078;SDS011;5078;42.544;22.966;2022-07-10T00:39:23;17.02;;;15.32;;
10078;SDS011;5078;42.544;22.966;2022-07-10T00:41:50;16.48;;;14.77;;
10078;SDS011;5078;42.544;22.966;2022-07-10T00:44:17;17.73;;;15.93;;
10078;SDS011;5078;42.544;22.966;2022-07-10T00:46:43;16.75;;;15.23;;
10078;SDS011;5078;42.544;22.966;2022-07-10T00:49:10;16.90;;;15.23;;
10078;SDS011;5078;42.544;22.966;2022-07-10T00:51:37;15.40;;;13.80;;
10078;SDS011;5078;42.544;22.966;2022-07-10T00:54:04;17.63;;;14.98;;
10078;SDS011;5078;42.544;22.966;2022-07-10T00:56:33;16.23;;;14.52;;
10078;SDS011;5078;42.544;22.966;2022-07-10T00:59:00;15.73;;;14.07;;
10078;SDS011;5078;42.544;22.966;2022-07-10T01:01:27;16.05;;;14.38;;
10078;SDS011;5078;42.544;22.966;2022-07-10T01:03:54;17.23;;;15.52;;
10078;SDS011;5078;42.544;22.966;2022-07-10T01:06:21;18.30;;;16.50;;
10078;SDS011;5078;42.544;22.966;2022-07-10T01:08:47;18.70;;;16.95;;
10078;SDS011;5078;42.544;22.966;2022-07-10T01:11:15;18.48;;;16.50;;
10078;SDS011;5078;42.544;22.966;2022-07-10T01:13:43;17.77;;;16.15;;
10078;SDS011;5078;42.544;22.966;2022-07-10T01:16:10;18.88;;;16.83;;
10078;SDS011;5078;42.544;22.966;2022-07-10T01:18:37;17.77;;;16.08;;
10078;SDS011;5078;42.544;22.966;2022-07-10T01:21:05;17.75;;;16.02;;
10078;SDS011;5078;42.544;22.966;2022-07-10T01:23:32;18.80;;;17.00;;
10078;SDS011;5078;42.544;22.966;2022-07-10T01:25:59;18.05;;;16.17;;
10078;SDS011;5078;42.544;22.966;2022-07-10T01:28:27;18.40;;;16.25;;
10078;SDS011;5078;42.544;22.966;2022-07-10T01:30:56;18.13;;;16.42;;
10078;SDS011;5078;42.544;22.966;2022-07-10T01:33:23;18.63;;;16.75;;
10078;SDS011;5078;42.544;22.966;2022-07-10T01:35:49;18.55;;;16.50;;
10078;SDS011;5078;42.544;22.966;2022-07-10T01:38:20;18.00;;;16.15;;
10078;SDS011;5078;42.544;22.966;2022-07-10T01:40:47;18.88;;;16.15;;
10078;SDS011;5078;42.544;22.966;2022-07-10T01:43:14;18.52;;;16.63;;
10078;SDS011;5078;42.544;22.966;2022-07-10T01:45:41;17.92;;;16.20;;
10078;SDS011;5078;42.544;22.966;2022-07-10T01:48:08;20.05;;;18.05;;
10078;SDS011;5078;42.544;22.966;2022-07-10T01:50:35;19.58;;;17.67;;
10078;SDS011;5078;42.544;22.966;2022-07-10T01:53:02;19.48;;;17.50;;
10078;SDS011;5078;42.544;22.966;2022-07-10T01:55:32;18.95;;;17.25;;
10078;SDS011;5078;42.544;22.966;2022-07-10T01:57:59;18.95;;;17.02;;
10078;SDS011;5078;42.544;22.966;2022-07-10T02:00:25;17.77;;;16.17;;
10078;SDS011;5078;42.544;22.966;2022-07-10T02:02:52;18.55;;;16.73;;
10078;SDS011;5078;42.544;22.966;2022-07-10T02:05:36;18.75;;;16.75;;
10078;SDS011;5078;42.544;22.966;2022-07-10T02:08:03;18.75;;;16.92;;
10078;SDS011;5078;42.544;22.966;2022-07-10T02:10:33;18.30;;;16.55;;
10078;SDS011;5078;42.544;22.966;2022-07-10T02:13:00;18.17;;;16.35;;
10078;SDS011;5078;42.544;22.966;2022-07-10T02:15:27;17.90;;;15.80;;
10078;SDS011;5078;42.544;22.966;2022-07-10T02:17:54;18.75;;;16.73;;
10078;SDS011;5078;42.544;22.966;2022-07-10T02:20:21;18.50;;;15.45;;
10078;SDS011;5078;42.544;22.966;2022-07-10T02:22:47;19.08;;;16.05;;
10078;SDS011;5078;42.544;22.966;2022-07-10T02:25:14;17.25;;;15.57;;
10078;SDS011;5078;42.544;22.966;2022-07-10T02:27:45;17.25;;;15.55;;
10078;SDS011;5078;42.544;22.966;2022-07-10T02:30:12;19.27;;;17.48;;
10078;SDS011;5078;42.544;22.966;2022-07-10T02:32:38;17.67;;;15.88;;
10078;SDS011;5078;42.544;22.966;2022-07-10T02:35:05;17.35;;;15.60;;
10078;SDS011;5078;42.544;22.966;2022-07-10T02:37:32;16.63;;;14.65;;
10078;SDS011;5078;42.544;22.966;2022-07-10T02:39:59;16.63;;;14.48;;
10078;SDS011;5078;42.544;22.966;2022-07-10T02:42:26;17.27;;;15.65;;
10078;SDS011;5078;42.544;22.966;2022-07-10T02:44:54;16.70;;;14.93;;
10078;SDS011;5078;42.544;22.966;2022-07-10T02:47:21;19.52;;;15.43;;
10078;SDS011;5078;42.544;22.966;2022-07-10T02:49:47;16.70;;;15.00;;
10078;SDS011;5078;42.544;22.966;2022-07-10T02:52:14;16.95;;;14.38;;
10078;SDS011;5078;42.544;22.966;2022-07-10T02:54:41;16.75;;;15.13;;
10078;SDS011;5078;42.544;22.966;2022-07-10T02:57:08;16.27;;;14.63;;
10078;SDS011;5078;42.544;22.966;2022-07-10T02:59:35;16.95;;;14.88;;
10078;SDS011;5078;42.544;22.966;2022-07-10T03:02:03;18.67;;;15.55;;
10078;SDS011;5078;42.544;22.966;2022-07-10T03:04:51;18.27;;;16.30;;
10078;SDS011;5078;42.544;22.966;2022-07-10T03:07:20;21.38;;;16.52;;
10078;SDS011;5078;42.544;22.966;2022-07-10T03:09:46;18.10;;;16.35;;
10078;SDS011;5078;42.544;22.966;2022-07-10T03:12:13;18.67;;;16.83;;
10078;SDS011;5078;42.544;22.966;2022-07-10T03:14:40;19.58;;;17.58;;
10078;SDS011;5078;42.544;22.966;2022-07-10T03:17:08;24.10;;;18.38;;
10078;SDS011;5078;42.544;22.966;2022-07-10T03:19:34;19.92;;;17.92;;
10078;SDS011;5078;42.544;22.966;2022-07-10T03:22:01;19.73;;;17.67;;
10078;SDS011;5078;42.544;22.966;2022-07-10T03:24:28;21.27;;;19.08;;
10078;SDS011;5078;42.544;22.966;2022-07-10T03:26:55;20.20;;;18.08;;
10078;SDS011;5078;42.544;22.966;2022-07-10T03:29:21;20.88;;;18.67;;
10078;SDS011;5078;42.544;22.966;2022-07-10T03:31:48;20.33;;;18.23;;
10078;SDS011;5078;42.544;22.966;2022-07-10T03:34:16;21.73;;;19.42;;
10078;SDS011;5078;42.544;22.966;2022-07-10T03:36:43;21.55;;;18.70;;
10078;SDS011;5078;42.544;22.966;2022-07-10T03:39:10;21.00;;;18.80;;
10078;SDS011;5078;42.544;22.966;2022-07-10T03:41:36;21.27;;;19.08;;
10078;SDS011;5078;42.544;22.966;2022-07-10T03:44:03;24.60;;;20.35;;
10078;SDS011;5078;42.544;22.966;2022-07-10T03:46:50;22.23;;;19.92;;
10078;SDS011;5078;42.544;22.966;2022-07-10T03:49:19;22.63;;;19.58;;
10078;SDS011;5078;42.544;22.966;2022-07-10T03:51:45;26.15;;;19.48;;
10078;SDS011;5078;42.544;22.966;2022-07-10T03:54:12;22.92;;;19.25;;
10078;SDS011;5078;42.544;22.966;2022-07-10T03:56:39;20.83;;;18.65;;
10078;SDS011;5078;42.544;22.966;2022-07-10T03:59:23;20.35;;;18.20;;
10078;SDS011;5078;42.544;22.966;2022-07-10T04:01:50;20.20;;;18.20;;
10078;SDS011;5078;42.544;22.966;2022-07-10T04:04:18;19.67;;;17.58;;
10078;SDS011;5078;42.544;22.966;2022-07-10T04:06:45;20.40;;;18.38;;
10078;SDS011;5078;42.544;22.966;2022-07-10T04:09:12;35.92;;;17.48;;
10078;SDS011;5078;42.544;22.966;2022-07-10T04:11:38;20.67;;;18.52;;
10078;SDS011;5078;42.544;22.966;2022-07-10T04:14:05;21.08;;;18.73;;
10078;SDS011;5078;42.544;22.966;2022-07-10T04:16:32;24.38;;;18.98;;
10078;SDS011;5078;42.544;22.966;2022-07-10T04:18:59;23.40;;;20.67;;
10078;SDS011;5078;42.544;22.966;2022-07-10T04:21:27;24.23;;;19.08;;
10078;SDS011;5078;42.544;22.966;2022-07-10T04:23:53;24.73;;;19.63;;
10078;SDS011;5078;42.544;22.966;2022-07-10T04:26:20;22.27;;;18.85;;
10078;SDS011;5078;42.544;22.966;2022-07-10T04:28:47;24.30;;;20.02;;
10078;SDS011;5078;42.544;22.966;2022-07-10T04:31:13;23.95;;;19.75;;
10078;SDS011;5078;42.544;22.966;2022-07-10T04:33:40;19.45;;;17.33;;
10078;SDS011;5078;42.544;22.966;2022-07-10T04:36:07;21.20;;;17.88;;
10078;SDS011;5078;42.544;22.966;2022-07-10T04:38:35;18.05;;;16.17;;
10078;SDS011;5078;42.544;22.966;2022-07-10T04:41:02;18.23;;;16.48;;
10078;SDS011;5078;42.544;22.966;2022-07-10T04:43:29;19.13;;;15.73;;
10078;SDS011;5078;42.544;22.966;2022-07-10T04:45:56;17.45;;;15.65;;
10078;SDS011;5078;42.544;22.966;2022-07-10T04:48:23;17.30;;;15.43;;
10078;SDS011;5078;42.544;22.966;2022-07-10T04:50:50;16.70;;;15.05;;
10078;SDS011;5078;42.544;22.966;2022-07-10T04:53:17;16.23;;;14.70;;
10078;SDS011;5078;42.544;22.966;2022-07-10T04:55:45;16.60;;;14.80;;
10078;SDS011;5078;42.544;22.966;2022-07-10T04:58:12;16.40;;;14.80;;
10078;SDS011;5078;42.544;22.966;2022-07-10T05:00:38;15.93;;;14.40;;
10078;SDS011;5078;42.544;22.966;2022-07-10T05:03:05;16.13;;;14.55;;
10078;SDS011;5078;42.544;22.966;2022-07-10T05:05:32;16.08;;;14.45;;
10078;SDS011;5078;42.544;22.966;2022-07-10T05:07:59;16.10;;;14.43;;
10078;SDS011;5078;42.544;22.966;2022-07-10T05:10:26;14.70;;;13.27;;
10078;SDS011;5078;42.544;22.966;2022-07-10T05:12:54;14.93;;;13.07;;
10078;SDS011;5078;42.544;22.966;2022-07-10T05:15:22;14.88;;;13.55;;
10078;SDS011;5078;42.544;22.966;2022-07-10T05:17:48;14.15;;;12.95;;
10078;SDS011;5078;42.544;22.966;2022-07-10T05:20:15;13.88;;;12.52;;
10078;SDS011;5078;42.544;22.966;2022-07-10T05:22:42;14.05;;;12.75;;
10078;SDS011;5078;42.544;22.966;2022-07-10T05:25:09;14.20;;;12.90;;
10078;SDS011;5078;42.544;22.966;2022-07-10T05:27:35;14.70;;;13.40;;
10078;SDS011;5078;42.544;22.966;2022-07-10T05:30:04;13.80;;;12.48;;
10078;SDS011;5078;42.544;22.966;2022-07-10T05:32:32;14.73;;;13.40;;
10078;SDS011;5078;42.544;22.966;2022-07-10T05:34:58;14.48;;;13.18;;
10078;SDS011;5078;42.544;22.966;2022-07-10T05:37:25;13.43;;;12.23;;
10078;SDS011;5078;42.544;22.966;2022-07-10T05:39:52;14.90;;;12.90;;
10078;SDS011;5078;42.544;22.966;2022-07-10T05:42:18;14.38;;;12.88;;
10078;SDS011;5078;42.544;22.966;2022-07-10T05:44:45;13.25;;;12.02;;
10078;SDS011;5078;42.544;22.966;2022-07-10T05:47:13;12.80;;;11.63;;
10078;SDS011;5078;42.544;22.966;2022-07-10T05:49:40;13.13;;;11.90;;
10078;SDS011;5078;42.544;22.966;2022-07-10T05:52:07;12.80;;;11.60;;
10078;SDS011;5078;42.544;22.966;2022-07-10T05:54:34;13.20;;;11.93;;
10078;SDS011;5078;42.544;22.966;2022-07-10T05:57:00;12.95;;;11.75;;
10078;SDS011;5078;42.544;22.966;2022-07-10T05:59:27;13.30;;;11.15;;
10078;SDS011;5078;42.544;22.966;2022-07-10T06:01:54;15.13;;;12.95;;
10078;SDS011;5078;42.544;22.966;2022-07-10T06:04:22;14.48;;;12.43;;
10078;SDS011;5078;42.544;22.966;2022-07-10T06:06:49;12.77;;;11.68;;
10078;SDS011;5078;42.544;22.966;2022-07-10T06:09:16;12.73;;;11.63;;
10078;SDS011;5078;42.544;22.966;2022-07-10T06:11:42;12.85;;;11.75;;
10078;SDS011;5078;42.544;22.966;2022-07-10T06:14:11;13.63;;;11.60;;
10078;SDS011;5078;42.544;22.966;2022-07-10T06:16:38;13.70;;;12.50;;
10078;SDS011;5078;42.544;22.966;2022-07-10T06:19:04;13.48;;;12.27;;
10078;SDS011;5078;42.544;22.966;2022-07-10T06:21:33;14.52;;;12.00;;
10078;SDS011;5078;42.544;22.966;2022-07-10T06:24:00;13.77;;;12.27;;
10078;SDS011;5078;42.544;22.966;2022-07-10T06:26:27;11.60;;;10.60;;
10078;SDS011;5078;42.544;22.966;2022-07-10T06:28:54;13.38;;;11.75;;
10078;SDS011;5078;42.544;22.966;2022-07-10T06:31:20;11.50;;;10.43;;
10078;SDS011;5078;42.544;22.966;2022-07-10T06:33:48;11.52;;;10.48;;
10078;SDS011;5078;42.544;22.966;2022-07-10T06:36:14;11.05;;;10.05;;
10078;SDS011;5078;42.544;22.966;2022-07-10T06:38:42;11.60;;;9.77;;
10078;SDS011;5078;42.544;22.966;2022-07-10T06:41:09;12.57;;;10.27;;
10078;SDS011;5078;42.544;22.966;2022-07-10T06:43:36;11.27;;;10.25;;
10078;SDS011;5078;42.544;22.966;2022-07-10T06:46:03;10.38;;;9.57;;
10078;SDS011;5078;42.544;22.966;2022-07-10T06:48:30;16.75;;;13.70;;
10078;SDS011;5078;42.544;22.966;2022-07-10T06:50:57;11.18;;;9.77;;
10078;SDS011;5078;42.544;22.966;2022-07-10T06:53:24;11.90;;;9.82;;
10078;SDS011;5078;42.544;22.966;2022-07-10T06:55:53;10.75;;;9.80;;
10078;SDS011;5078;42.544;22.966;2022-07-10T06:58:20;10.13;;;9.10;;
10078;SDS011;5078;42.544;22.966;2022-07-10T07:00:47;10.50;;;9.18;;
10078;SDS011;5078;42.544;22.966;2022-07-10T07:03:15;10.75;;;9.73;;
10078;SDS011;5078;42.544;22.966;2022-07-10T07:05:42;10.15;;;9.20;;
10078;SDS011;5078;42.544;22.966;2022-07-10T07:08:08;9.13;;;8.32;;
10078;SDS011;5078;42.544;22.966;2022-07-10T07:10:38;9.23;;;8.45;;
10078;SDS011;5078;42.544;22.966;2022-07-10T07:13:06;9.32;;;8.55;;
10078;SDS011;5078;42.544;22.966;2022-07-10T07:15:34;7.72;;;7.13;;
10078;SDS011;5078;42.544;22.966;2022-07-10T07:18:04;7.55;;;5.40;;
10078;SDS011;5078;42.544;22.966;2022-07-10T07:20:37;5.75;;;4.00;;
10078;SDS011;5078;42.544;22.966;2022-07-10T07:23:21;8.32;;;5.50;;
10078;SDS011;5078;42.544;22.966;2022-07-10T07:25:49;8.65;;;4.80;;
10078;SDS011;5078;42.544;22.966;2022-07-10T07:28:17;5.75;;;4.47;;
10078;SDS011;5078;42.544;22.966;2022-07-10T07:30:45;4.63;;;4.20;;
10078;SDS011;5078;42.544;22.966;2022-07-10T07:33:12;7.28;;;4.30;;
10078;SDS011;5078;42.544;22.966;2022-07-10T07:35:39;4.72;;;3.97;;
10078;SDS011;5078;42.544;22.966;2022-07-10T07:38:06;4.85;;;4.07;;
10078;SDS011;5078;42.544;22.966;2022-07-10T07:40:33;4.57;;;4.00;;
10078;SDS011;5078;42.544;22.966;2022-07-10T07:43:02;4.15;;;3.75;;
10078;SDS011;5078;42.544;22.966;2022-07-10T07:45:30;3.85;;;3.55;;
10078;SDS011;5078;42.544;22.966;2022-07-10T07:47:57;4.20;;;3.75;;
10078;SDS011;5078;42.544;22.966;2022-07-10T07:50:27;4.30;;;3.90;;
10078;SDS011;5078;42.544;22.966;2022-07-10T07:52:57;4.05;;;3.70;;
10078;SDS011;5078;42.544;22.966;2022-07-10T07:55:24;4.47;;;4.07;;
10078;SDS011;5078;42.544;22.966;2022-07-10T07:57:52;4.50;;;3.70;;
10078;SDS011;5078;42.544;22.966;2022-07-10T08:00:19;6.55;;;4.07;;
10078;SDS011;5078;42.544;22.966;2022-07-10T08:02:49;5.47;;;3.95;;
10078;SDS011;5078;42.544;22.966;2022-07-10T08:05:16;4.72;;;4.20;;
10078;SDS011;5078;42.544;22.966;2022-07-10T08:07:44;5.10;;;4.70;;
10078;SDS011;5078;42.544;22.966;2022-07-10T08:10:14;4.25;;;3.85;;
10078;SDS011;5078;42.544;22.966;2022-07-10T08:12:42;6.68;;;4.38;;
10078;SDS011;5078;42.544;22.966;2022-07-10T08:15:11;7.22;;;4.22;;
10078;SDS011;5078;42.544;22.966;2022-07-10T08:17:39;7.97;;;3.80;;
10078;SDS011;5078;42.544;22.966;2022-07-10T08:20:10;7.00;;;4.82;;
10078;SDS011;5078;42.544;22.966;2022-07-10T08:22:38;5.55;;;4.88;;
10078;SDS011;5078;42.544;22.966;2022-07-10T08:25:06;4.30;;;3.90;;
10078;SDS011;5078;42.544;22.966;2022-07-10T08:27:36;4.00;;;3.63;;
10078;SDS011;5078;42.544;22.966;2022-07-10T08:30:04;7.22;;;4.18;;
10078;SDS011;5078;42.544;22.966;2022-07-10T08:32:32;5.93;;;3.97;;
10078;SDS011;5078;42.544;22.966;2022-07-10T08:34:58;5.40;;;3.88;;
10078;SDS011;5078;42.544;22.966;2022-07-10T08:37:27;4.15;;;3.83;;
10078;SDS011;5078;42.544;22.966;2022-07-10T08:39:53;6.10;;;4.47;;
10078;SDS011;5078;42.544;22.966;2022-07-10T08:42:20;19.27;;;5.32;;
10078;SDS011;5078;42.544;22.966;2022-07-10T08:44:48;4.20;;;3.80;;
10078;SDS011;5078;42.544;22.966;2022-07-10T08:47:18;6.07;;;5.30;;
10078;SDS011;5078;42.544;22.966;2022-07-10T08:49:50;3.72;;;3.30;;
10078;SDS011;5078;42.544;22.966;2022-07-10T08:52:22;5.95;;;3.53;;
10078;SDS011;5078;42.544;22.966;2022-07-10T08:54:53;4.05;;;3.20;;
10078;SDS011;5078;42.544;22.966;2022-07-10T08:57:20;5.40;;;4.25;;
10078;SDS011;5078;42.544;22.966;2022-07-10T08:59:49;9.45;;;3.80;;
10078;SDS011;5078;42.544;22.966;2022-07-10T09:02:16;5.00;;;3.03;;
10078;SDS011;5078;42.544;22.966;2022-07-10T09:04:42;3.47;;;3.03;;
10078;SDS011;5078;42.544;22.966;2022-07-10T09:07:09;3.38;;;2.92;;
10078;SDS011;5078;42.544;22.966;2022-07-10T09:09:50;3.90;;;3.45;;
10078;SDS011;5078;42.544;22.966;2022-07-10T09:12:20;4.60;;;3.60;;
10078;SDS011;5078;42.544;22.966;2022-07-10T09:14:47;6.65;;;2.90;;
10078;SDS011;5078;42.544;22.966;2022-07-10T09:17:14;3.45;;;3.15;;
10078;SDS011;5078;42.544;22.966;2022-07-10T09:19:40;3.53;;;3.22;;
10078;SDS011;5078;42.544;22.966;2022-07-10T09:22:09;3.60;;;3.30;;
10078;SDS011;5078;42.544;22.966;2022-07-10T09:24:37;4.22;;;3.85;;
10078;SDS011;5078;42.544;22.966;2022-07-10T09:27:07;4.13;;;3.55;;
10078;SDS011;5078;42.544;22.966;2022-07-10T09:29:44;4.57;;;4.03;;
10078;SDS011;5078;42.544;22.966;2022-07-10T09:32:12;4.85;;;3.20;;
10078;SDS011;5078;42.544;22.966;2022-07-10T09:34:39;3.88;;;2.88;;
10078;SDS011;5078;42.544;22.966;2022-07-10T09:37:20;4.25;;;3.28;;
10078;SDS011;5078;42.544;22.966;2022-07-10T09:39:51;5.05;;;3.80;;
10078;SDS011;5078;42.544;22.966;2022-07-10T09:42:26;4.32;;;3.40;;
10078;SDS011;5078;42.544;22.966;2022-07-10T09:45:13;4.72;;;3.42;;
10078;SDS011;5078;42.544;22.966;2022-07-10T09:47:42;3.40;;;3.10;;
10078;SDS011;5078;42.544;22.966;2022-07-10T09:50:19;6.07;;;3.30;;
10078;SDS011;5078;42.544;22.966;2022-07-10T09:52:46;4.53;;;3.42;;
10078;SDS011;5078;42.544;22.966;2022-07-10T09:55:16;3.78;;;2.97;;
10078;SDS011;5078;42.544;22.966;2022-07-10T09:57:47;3.50;;;3.20;;
10078;SDS011;5078;42.544;22.966;2022-07-10T10:00:18;5.40;;;3.55;;
10078;SDS011;5078;42.544;22.966;2022-07-10T10:02:46;6.20;;;3.40;;
10078;SDS011;5078;42.544;22.966;2022-07-10T10:05:13;3.90;;;3.05;;
10078;SDS011;5078;42.544;22.966;2022-07-10T10:07:41;3.67;;;3.15;;
10078;SDS011;5078;42.544;22.966;2022-07-10T10:10:09;5.10;;;4.00;;
10078;SDS011;5078;42.544;22.966;2022-07-10T10:12:42;4.07;;;3.40;;
10078;SDS011;5078;42.544;22.966;2022-07-10T10:15:12;3.22;;;2.97;;
10078;SDS011;5078;42.544;22.966;2022-07-10T10:17:40;6.35;;;3.10;;
10078;SDS011;5078;42.544;22.966;2022-07-10T10:20:09;4.35;;;3.30;;
10078;SDS011;5078;42.544;22.966;2022-07-10T10:22:55;3.25;;;3.05;;
10078;SDS011;5078;42.544;22.966;2022-07-10T10:25:24;3.55;;;3.25;;
10078;SDS011;5078;42.544;22.966;2022-07-10T10:27:52;3.38;;;3.08;;
10078;SDS011;5078;42.544;22.966;2022-07-10T10:30:20;3.85;;;3.17;;
10078;SDS011;5078;42.544;22.966;2022-07-10T10:32:47;4.07;;;3.10;;
10078;SDS011;5078;42.544;22.966;2022-07-10T10:35:24;3.40;;;3.10;;
10078;SDS011;5078;42.544;22.966;2022-07-10T10:38:08;3.05;;;2.80;;
10078;SDS011;5078;42.544;22.966;2022-07-10T10:40:35;3.03;;;2.70;;
10078;SDS011;5078;42.544;22.966;2022-07-10T10:43:15;3.78;;;3.08;;
10078;SDS011;5078;42.544;22.966;2022-07-10T10:45:44;4.75;;;3.00;;
10078;SDS011;5078;42.544;22.966;2022-07-10T10:48:12;3.88;;;3.08;;
10078;SDS011;5078;42.544;22.966;2022-07-10T10:50:41;3.33;;;3.05;;
10078;SDS011;5078;42.544;22.966;2022-07-10T10:53:15;3.20;;;3.00;;
10078;SDS011;5078;42.544;22.966;2022-07-10T10:58:49;3.97;;;3.00;;
10078;SDS011;5078;42.544;22.966;2022-07-10T11:01:27;4.43;;;2.80;;
10078;SDS011;5078;42.544;22.966;2022-07-10T11:06:39;3.50;;;3.20;;
10078;SDS011;5078;42.544;22.966;2022-07-10T11:09:20;3.13;;;2.90;;
10078;SDS011;5078;42.544;22.966;2022-07-10T11:11:57;3.33;;;3.08;;
10078;SDS011;5078;42.544;22.966;2022-07-10T11:14:26;3.15;;;2.85;;
10078;SDS011;5078;42.544;22.966;2022-07-10T11:16:55;3.70;;;3.00;;
10078;SDS011;5078;42.544;22.966;2022-07-10T11:19:23;3.90;;;2.90;;
10078;SDS011;5078;42.544;22.966;2022-07-10T11:21:55;5.78;;;3.72;;
10078;SDS011;5078;42.544;22.966;2022-07-10T11:24:43;5.10;;;3.10;;
10078;SDS011;5078;42.544;22.966;2022-07-10T11:27:24;3.88;;;3.53;;
10078;SDS011;5078;42.544;22.966;2022-07-10T11:29:56;3.30;;;2.58;;
10078;SDS011;5078;42.544;22.966;2022-07-10T11:32:25;3.78;;;3.20;;
10078;SDS011;5078;42.544;22.966;2022-07-10T11:34:52;3.25;;;3.05;;
10078;SDS011;5078;42.544;22.966;2022-07-10T11:37:19;3.95;;;3.00;;
10078;SDS011;5078;42.544;22.966;2022-07-10T11:39:46;4.25;;;3.13;;
10078;SDS011;5078;42.544;22.966;2022-07-10T11:42:12;6.07;;;2.70;;
10078;SDS011;5078;42.544;22.966;2022-07-10T11:44:39;3.10;;;2.80;;
10078;SDS011;5078;42.544;22.966;2022-07-10T11:47:06;3.97;;;3.20;;
10078;SDS011;5078;42.544;22.966;2022-07-10T11:49:34;3.50;;;2.95;;
10078;SDS011;5078;42.544;22.966;2022-07-10T11:52:11;3.88;;;2.90;;
10078;SDS011;5078;42.544;22.966;2022-07-10T11:54:38;4.22;;;3.03;;
10078;SDS011;5078;42.544;22.966;2022-07-10T11:57:07;4.40;;;3.30;;
10078;SDS011;5078;42.544;22.966;2022-07-10T11:59:34;5.50;;;3.05;;
10078;SDS011;5078;42.544;22.966;2022-07-10T12:02:01;3.72;;;2.83;;
10078;SDS011;5078;42.544;22.966;2022-07-10T12:04:29;4.63;;;2.97;;
10078;SDS011;5078;42.544;22.966;2022-07-10T12:06:58;3.08;;;2.78;;
10078;SDS011;5078;42.544;22.966;2022-07-10T12:09:25;4.13;;;3.10;;
10078;SDS011;5078;42.544;22.966;2022-07-10T12:11:58;3.00;;;2.75;;
10078;SDS011;5078;42.544;22.966;2022-07-10T12:14:26;4.70;;;2.45;;
10078;SDS011;5078;42.544;22.966;2022-07-10T12:16:54;2.53;;;2.33;;
10078;SDS011;5078;42.544;22.966;2022-07-10T12:19:22;3.33;;;2.90;;
10078;SDS011;5078;42.544;22.966;2022-07-10T12:21:50;2.85;;;2.65;;
10078;SDS011;5078;42.544;22.966;2022-07-10T12:24:19;3.28;;;2.50;;
10078;SDS011;5078;42.544;22.966;2022-07-10T12:26:46;2.55;;;2.30;;
10078;SDS011;5078;42.544;22.966;2022-07-10T12:29:18;4.53;;;2.55;;
10078;SDS011;5078;42.544;22.966;2022-07-10T12:31:47;3.70;;;2.60;;
10078;SDS011;5078;42.544;22.966;2022-07-10T12:34:14;3.10;;;2.70;;
10078;SDS011;5078;42.544;22.966;2022-07-10T12:36:42;2.75;;;2.42;;
10078;SDS011;5078;42.544;22.966;2022-07-10T12:39:11;3.30;;;2.67;;
10078;SDS011;5078;42.544;22.966;2022-07-10T12:41:59;4.20;;;2.70;;
10078;SDS011;5078;42.544;22.966;2022-07-10T12:44:31;2.70;;;2.38;;
10078;SDS011;5078;42.544;22.966;2022-07-10T12:47:00;2.67;;;2.47;;
10078;SDS011;5078;42.544;22.966;2022-07-10T12:49:27;2.45;;;2.25;;
10078;SDS011;5078;42.544;22.966;2022-07-10T12:51:54;2.95;;;2.47;;
10078;SDS011;5078;42.544;22.966;2022-07-10T12:54:31;2.80;;;2.53;;
10078;SDS011;5078;42.544;22.966;2022-07-10T12:57:01;3.13;;;2.35;;
10078;SDS011;5078;42.544;22.966;2022-07-10T12:59:31;2.72;;;2.50;;
10078;SDS011;5078;42.544;22.966;2022-07-10T13:01:59;2.45;;;2.25;;
10078;SDS011;5078;42.544;22.966;2022-07-10T13:04:50;2.75;;;2.42;;
10078;SDS011;5078;42.544;22.966;2022-07-10T13:07:18;2.80;;;2.08;;
10078;SDS011;5078;42.544;22.966;2022-07-10T13:09:47;2.95;;;2.65;;
10078;SDS011;5078;42.544;22.966;2022-07-10T13:12:16;3.67;;;2.53;;
10078;SDS011;5078;42.544;22.966;2022-07-10T13:14:43;3.63;;;2.42;;
10078;SDS011;5078;42.544;22.966;2022-07-10T13:17:10;4.20;;;2.50;;
10078;SDS011;5078;42.544;22.966;2022-07-10T13:19:36;3.08;;;2.80;;
10078;SDS011;5078;42.544;22.966;2022-07-10T13:22:03;3.75;;;2.72;;
10078;SDS011;5078;42.544;22.966;2022-07-10T13:24:30;3.45;;;2.95;;
10078;SDS011;5078;42.544;22.966;2022-07-10T13:26:58;2.95;;;2.65;;
10078;SDS011;5078;42.544;22.966;2022-07-10T13:29:27;3.53;;;2.60;;
10078;SDS011;5078;42.544;22.966;2022-07-10T13:31:53;2.95;;;2.63;;
10078;SDS011;5078;42.544;22.966;2022-07-10T13:34:20;3.03;;;2.83;;
10078;SDS011;5078;42.544;22.966;2022-07-10T13:36:47;3.78;;;3.13;;
10078;SDS011;5078;42.544;22.966;2022-07-10T13:39:14;6.18;;;4.00;;
10078;SDS011;5078;42.544;22.966;2022-07-10T13:41:41;4.65;;;3.08;;
10078;SDS011;5078;42.544;22.966;2022-07-10T13:44:08;4.13;;;2.65;;
10078;SDS011;5078;42.544;22.966;2022-07-10T13:46:36;3.95;;;2.30;;
10078;SDS011;5078;42.544;22.966;2022-07-10T13:49:04;2.97;;;2.65;;
10078;SDS011;5078;42.544;22.966;2022-07-10T13:51:31;2.70;;;2.50;;
10078;SDS011;5078;42.544;22.966;2022-07-10T13:53:58;4.47;;;2.78;;
10078;SDS011;5078;42.544;22.966;2022-07-10T13:56:25;4.22;;;2.70;;
10078;SDS011;5078;42.544;22.966;2022-07-10T13:58:52;3.08;;;2.70;;
10078;SDS011;5078;42.544;22.966;2022-07-10T14:01:19;2.92;;;2.42;;
10078;SDS011;5078;42.544;22.966;2022-07-10T14:03:48;3.40;;;2.47;;
10078;SDS011;5078;42.544;22.966;2022-07-10T14:06:15;2.28;;;2.05;;
10078;SDS011;5078;42.544;22.966;2022-07-10T14:08:42;2.97;;;1.88;;
10078;SDS011;5078;42.544;22.966;2022-07-10T14:11:08;3.17;;;2.17;;
10078;SDS011;5078;42.544;22.966;2022-07-10T14:13:35;2.08;;;1.95;;
10078;SDS011;5078;42.544;22.966;2022-07-10T14:16:02;2.13;;;2.00;;
10078;SDS011;5078;42.544;22.966;2022-07-10T14:18:29;2.45;;;2.25;;
10078;SDS011;5078;42.544;22.966;2022-07-10T14:21:05;2.53;;;2.33;;
10078;SDS011;5078;42.544;22.966;2022-07-10T14:23:35;2.17;;;2.00;;
10078;SDS011;5078;42.544;22.966;2022-07-10T14:26:06;2.40;;;2.20;;
10078;SDS011;5078;42.544;22.966;2022-07-10T14:28:33;4.13;;;2.47;;
10078;SDS011;5078;42.544;22.966;2022-07-10T14:31:01;2.60;;;2.05;;
10078;SDS011;5078;42.544;22.966;2022-07-10T14:33:29;2.10;;;2.00;;
10078;SDS011;5078;42.544;22.966;2022-07-10T14:35:56;2.63;;;2.00;;
10078;SDS011;5078;42.544;22.966;2022-07-10T14:38:24;2.38;;;2.10;;
10078;SDS011;5078;42.544;22.966;2022-07-10T14:40:51;2.15;;;1.95;;
10078;SDS011;5078;42.544;22.966;2022-07-10T14:43:18;2.85;;;2.10;;
10078;SDS011;5078;42.544;22.966;2022-07-10T14:45:45;2.20;;;2.10;;
10078;SDS011;5078;42.544;22.966;2022-07-10T14:48:12;2.83;;;2.40;;